Time;durP1;ratioP1;P1;durP2;ratioP2;P2;SDS_P1;SDS_P2;PMS_P1;PMS_P2;Temp;Humidity;BMP_temperature;BMP_pressure;BME280_temperature;BME280_humidity;BME280_pressure;Samples;Min_cycle;Max_cycle;Signal;HPM_P1;HPM_P2
2022/06/06 00:00:18;;;;;;;27.77;16.70;;;18.70;91.60;;;;;;4987322;28;20213;-94
2022/06/06 00:02:49;;;;;;;33.77;18.87;;;18.70;91.60;;;;;;4990419;28;20206;-93
2022/06/06 00:05:18;;;;;;;29.13;17.37;;;18.70;91.50;;;;;;4989902;28;20209;-94
2022/06/06 00:07:50;;;;;;;26.73;16.80;;;18.70;91.50;;;;;;4987998;28;20966;-93
2022/06/06 00:10:18;;;;;;;26.73;16.13;;;18.70;91.40;;;;;;4991499;28;20216;-94
2022/06/06 00:12:48;;;;;;;29.53;17.33;;;18.70;91.40;;;;;;4991883;28;20205;-94
2022/06/06 00:15:15;;;;;;;23.20;15.03;;;18.60;91.50;;;;;;4975805;28;20218;-95
2022/06/06 00:17:42;;;;;;;22.87;13.97;;;18.60;91.70;;;;;;4977611;28;20328;-93
2022/06/06 00:20:11;;;;;;;24.30;13.23;;;18.60;90.90;;;;;;4991865;28;20213;-92
2022/06/06 00:22:44;;;;;;;22.67;13.90;;;18.60;90.70;;;;;;4993022;28;20213;-93
2022/06/06 00:25:18;;;;;;;28.53;14.60;;;18.60;90.70;;;;;;4992281;28;20209;-93
2022/06/06 00:27:47;;;;;;;20.70;12.90;;;18.60;90.70;;;;;;4991351;28;20198;-93
2022/06/06 00:30:14;;;;;;;26.57;13.87;;;18.50;90.70;;;;;;4992548;28;20274;-94
2022/06/06 00:35:26;;;;;;;23.67;13.10;;;18.50;90.70;;;;;;4984602;28;20212;-94
2022/06/06 00:37:56;;;;;;;21.43;12.90;;;18.50;90.70;;;;;;4993460;28;20241;-94
2022/06/06 00:40:25;;;;;;;21.73;13.43;;;18.50;90.40;;;;;;4991233;28;20211;-93
2022/06/06 00:42:55;;;;;;;29.27;13.87;;;18.40;90.10;;;;;;4991522;28;20229;-92
2022/06/06 00:45:33;;;;;;;21.70;12.90;;;18.40;89.90;;;;;;4986658;28;20629;-92
2022/06/06 00:48:10;;;;;;;26.47;13.63;;;18.40;89.70;;;;;;4990049;28;20212;-94
2022/06/06 00:50:45;;;;;;;17.50;10.23;;;18.40;89.40;;;;;;4989309;28;20208;-95
2022/06/06 00:53:13;;;;;;;20.13;10.97;;;18.30;88.70;;;;;;4991897;28;20215;-93
2022/06/06 00:55:45;;;;;;;19.13;11.50;;;18.30;88.70;;;;;;4992803;28;20196;-93
2022/06/06 00:58:17;;;;;;;18.57;11.00;;;18.30;88.50;;;;;;4986208;28;20235;-93
2022/06/06 01:00:51;;;;;;;16.40;10.33;;;18.20;88.40;;;;;;4989999;28;20205;-94
2022/06/06 01:03:22;;;;;;;22.17;11.57;;;18.20;88.10;;;;;;4989089;28;20220;-94
2022/06/06 01:05:51;;;;;;;18.83;10.70;;;18.10;88.10;;;;;;5008724;28;20193;-94
2022/06/06 01:08:25;;;;;;;23.27;11.63;;;18.10;88.30;;;;;;5011466;28;20213;-94
2022/06/06 01:10:53;;;;;;;18.13;10.90;;;18.10;88.20;;;;;;5004554;28;20239;-93
2022/06/06 01:13:26;;;;;;;20.80;11.33;;;18.00;87.80;;;;;;4981031;28;20257;-93
2022/06/06 01:16:10;;;;;;;16.13;10.07;;;18.00;87.60;;;;;;4988783;28;20271;-93
2022/06/06 01:18:57;;;;;;;15.83;9.13;;;17.90;87.60;;;;;;4977968;28;20742;-93
2022/06/06 01:21:47;;;;;;;21.47;9.57;;;17.90;87.80;;;;;;4987035;28;20200;-94
2022/06/06 01:24:40;;;;;;;13.37;8.60;;;17.80;87.40;;;;;;4978775;28;20212;-95
2022/06/06 01:27:34;;;;;;;13.60;8.40;;;17.80;87.60;;;;;;4987114;28;20213;-93
2022/06/06 01:30:06;;;;;;;18.43;9.87;;;17.70;87.60;;;;;;4995580;28;20217;-92
2022/06/06 01:32:38;;;;;;;21.43;10.33;;;17.70;87.90;;;;;;5012736;28;20267;-93
2022/06/06 01:35:12;;;;;;;15.00;9.20;;;17.60;87.80;;;;;;5006778;28;20207;-94
2022/06/06 01:37:44;;;;;;;13.67;8.30;;;17.60;87.80;;;;;;4985232;28;20221;-94
2022/06/06 01:40:23;;;;;;;21.20;9.83;;;17.50;87.50;;;;;;4980977;28;20254;-93
2022/06/06 01:42:58;;;;;;;13.17;7.50;;;17.50;87.50;;;;;;4975000;28;20345;-93
2022/06/06 01:45:35;;;;;;;15.07;7.40;;;17.40;87.60;;;;;;4979684;28;20211;-92
2022/06/06 01:48:08;;;;;;;13.03;6.57;;;17.40;87.80;;;;;;4994444;28;20215;-94
2022/06/06 01:50:38;;;;;;;13.30;7.77;;;17.40;87.80;;;;;;4985374;28;20208;-94
2022/06/06 01:53:10;;;;;;;10.07;6.80;;;17.30;87.60;;;;;;4992518;28;20212;-93
2022/06/06 01:55:42;;;;;;;18.40;8.43;;;17.20;87.60;;;;;;4992830;28;20260;-93
2022/06/06 01:58:14;;;;;;;18.27;8.10;;;17.20;87.70;;;;;;4991185;28;20256;-91
2022/06/06 02:00:48;;;;;;;13.20;7.00;;;17.20;87.80;;;;;;4992721;28;20999;-93
2022/06/06 02:03:15;;;;;;;12.90;6.40;;;17.20;87.90;;;;;;4990520;28;20250;-93
2022/06/06 02:05:44;;;;;;;17.43;7.80;;;17.10;88.10;;;;;;4983603;28;20205;-93
2022/06/06 02:08:15;;;;;;;12.13;7.10;;;17.10;89.20;;;;;;4983649;28;20212;-93
2022/06/06 02:10:44;;;;;;;14.17;6.83;;;17.00;88.30;;;;;;4986745;28;20645;-93
2022/06/06 02:13:11;;;;;;;16.77;7.47;;;17.00;88.50;;;;;;4989215;28;20231;-93
2022/06/06 02:15:39;;;;;;;12.83;6.73;;;17.00;88.30;;;;;;4987284;28;20228;-93
2022/06/06 02:18:16;;;;;;;9.63;5.97;;;16.90;89.00;;;;;;4980049;28;20231;-94
2022/06/06 02:20:45;;;;;;;10.90;6.97;;;16.90;88.30;;;;;;4984164;28;21085;-94
2022/06/06 02:23:13;;;;;;;10.07;5.77;;;16.90;89.10;;;;;;4996015;28;20202;-93
2022/06/06 02:25:41;;;;;;;11.27;6.57;;;16.90;88.20;;;;;;4987461;28;20212;-93
2022/06/06 02:28:11;;;;;;;16.30;7.10;;;16.90;88.20;;;;;;4988606;28;20222;-92
2022/06/06 02:30:39;;;;;;;13.43;6.30;;;16.80;88.50;;;;;;4982356;28;20314;-92
2022/06/06 02:33:09;;;;;;;9.50;5.50;;;16.80;88.50;;;;;;4983886;28;20236;-92
2022/06/06 02:35:40;;;;;;;15.47;6.73;;;16.80;88.30;;;;;;4993704;28;20229;-92
2022/06/06 02:38:08;;;;;;;13.57;6.43;;;16.80;88.20;;;;;;4994105;28;20237;-94
2022/06/06 02:40:35;;;;;;;15.73;7.07;;;16.70;88.10;;;;;;4993511;28;20659;-94
2022/06/06 02:43:03;;;;;;;10.63;6.33;;;16.70;88.00;;;;;;4994771;28;20203;-93
2022/06/06 02:45:32;;;;;;;9.67;5.67;;;16.70;88.00;;;;;;4993544;28;20225;-94
2022/06/06 02:48:09;;;;;;;11.40;6.07;;;16.70;88.00;;;;;;4997177;28;20203;-94
2022/06/06 02:50:44;;;;;;;12.30;6.07;;;16.60;88.00;;;;;;4992334;28;20219;-94
2022/06/06 02:53:13;;;;;;;19.37;6.83;;;16.60;87.80;;;;;;4993414;28;20604;-94
2022/06/06 02:55:41;;;;;;;12.97;6.47;;;16.50;87.70;;;;;;4994220;28;20213;-95
2022/06/06 02:58:11;;;;;;;18.80;8.13;;;16.50;87.60;;;;;;4993392;28;20947;-94
2022/06/06 03:00:43;;;;;;;18.63;6.80;;;16.50;87.50;;;;;;4983129;28;20207;-94
2022/06/06 03:03:10;;;;;;;12.00;5.83;;;16.40;87.70;;;;;;4989409;28;20211;-94
2022/06/06 03:05:53;;;;;;;19.60;7.77;;;16.40;87.70;;;;;;4976725;28;20211;-93
2022/06/06 03:08:29;;;;;;;11.50;6.03;;;16.40;87.90;;;;;;4993697;28;20211;-92
2022/06/06 03:11:08;;;;;;;15.77;6.60;;;16.30;87.90;;;;;;4990854;28;20204;-93
2022/06/06 03:13:53;;;;;;;14.97;6.70;;;16.30;88.00;;;;;;4988574;28;20278;-92
2022/06/06 03:22:56;;;;;;;12.33;6.10;;;16.20;88.00;;;;;;4993823;28;20290;-94
2022/06/06 03:25:33;;;;;;;13.70;6.40;;;16.20;88.20;;;;;;4991992;28;20298;-92
2022/06/06 03:28:08;;;;;;;12.10;7.07;;;16.20;88.40;;;;;;4995304;28;20256;-92
2022/06/06 03:30:44;;;;;;;12.67;6.03;;;16.20;88.40;;;;;;4992096;28;20209;-94
2022/06/06 03:33:24;;;;;;;20.17;8.30;;;16.20;88.40;;;;;;5005681;28;20212;-94
2022/06/06 03:35:58;;;;;;;14.73;6.80;;;16.10;88.50;;;;;;5003817;28;20253;-92
2022/06/06 03:38:36;;;;;;;15.30;6.67;;;16.10;88.80;;;;;;4992778;28;20233;-93
2022/06/06 03:41:11;;;;;;;13.87;6.47;;;16.10;89.00;;;;;;4991359;28;20203;-92
2022/06/06 03:43:46;;;;;;;13.60;6.97;;;16.00;88.90;;;;;;4999329;28;20577;-93
2022/06/06 03:46:29;;;;;;;26.83;9.40;;;16.00;89.10;;;;;;4998904;28;20639;-93
2022/06/06 03:49:12;;;;;;;9.67;5.77;;;16.00;89.30;;;;;;4977513;28;20213;-92
2022/06/06 03:54:40;;;;;;;16.43;7.17;;;15.90;89.70;;;;;;5035960;23;20228;-93
2022/06/06 03:57:14;;;;;;;17.20;7.03;;;15.90;89.60;;;;;;5010000;28;20211;-93
2022/06/06 03:59:47;;;;;;;19.10;7.97;;;15.90;89.60;;;;;;5009695;28;20207;-92
2022/06/06 04:02:18;;;;;;;17.47;7.17;;;15.90;89.50;;;;;;5008099;28;20204;-94
2022/06/06 04:04:47;;;;;;;24.23;9.30;;;15.90;89.70;;;;;;5011565;28;20207;-93
2022/06/06 04:07:15;;;;;;;25.90;9.13;;;15.90;90.00;;;;;;5012174;28;20229;-94
2022/06/06 04:09:47;;;;;;;11.17;6.00;;;15.80;90.00;;;;;;5027869;28;20249;-93
2022/06/06 04:12:32;;;;;;;13.90;6.20;;;15.90;90.20;;;;;;5021857;28;20222;-94
2022/06/06 04:15:13;;;;;;;19.33;7.73;;;15.80;90.20;;;;;;5009473;28;20382;-93
2022/06/06 04:17:59;;;;;;;13.73;6.20;;;15.80;90.30;;;;;;5022585;28;20222;-93
2022/06/06 04:20:35;;;;;;;18.10;7.53;;;15.80;90.40;;;;;;5019057;28;20194;-91
2022/06/06 04:23:30;;;;;;;15.27;7.10;;;15.80;90.30;;;;;;5012049;28;20212;-93
2022/06/06 04:26:13;;;;;;;14.53;6.17;;;15.80;90.40;;;;;;5014284;28;20218;-94
2022/06/06 04:28:52;;;;;;;8.23;5.13;;;15.80;90.50;;;;;;5013629;28;20205;-93
2022/06/06 04:31:36;;;;;;;15.20;6.47;;;15.80;90.50;;;;;;5015669;28;20289;-93
2022/06/06 04:34:17;;;;;;;13.70;5.93;;;15.80;90.40;;;;;;5013632;28;20235;-93
2022/06/06 04:37:00;;;;;;;7.97;4.63;;;15.80;90.40;;;;;;5014956;28;20260;-93
2022/06/06 04:39:37;;;;;;;10.77;5.40;;;15.80;90.30;;;;;;5014158;28;20359;-92
2022/06/06 04:42:11;;;;;;;12.70;5.83;;;15.80;90.40;;;;;;5038879;28;20201;-94
2022/06/06 04:44:44;;;;;;;13.57;5.60;;;15.80;90.50;;;;;;5029276;28;20189;-93
2022/06/06 04:47:25;;;;;;;12.30;5.83;;;15.70;90.50;;;;;;5022869;28;20209;-94
2022/06/06 04:49:57;;;;;;;8.33;4.73;;;15.70;90.70;;;;;;5033021;28;20235;-95
2022/06/06 04:52:25;;;;;;;11.93;5.57;;;15.70;90.70;;;;;;5036034;28;20217;-94
2022/06/06 04:54:58;;;;;;;12.17;5.53;;;15.80;90.90;;;;;;5015411;28;20209;-94
2022/06/06 04:57:28;;;;;;;7.33;4.73;;;15.70;91.10;;;;;;5024174;28;20232;-94
2022/06/06 04:59:58;;;;;;;15.67;6.60;;;15.70;91.10;;;;;;5020547;28;20209;-95
2022/06/06 05:02:30;;;;;;;11.57;5.97;;;15.80;91.30;;;;;;5018528;28;20611;-94
2022/06/06 05:04:57;;;;;;;13.17;5.53;;;15.80;91.40;;;;;;5020332;28;20205;-93
2022/06/06 05:07:40;;;;;;;7.83;4.87;;;15.80;91.20;;;;;;5031725;28;20266;-93
2022/06/06 05:10:18;;;;;;;10.73;4.83;;;15.90;91.40;;;;;;5055577;28;20177;-94
2022/06/06 05:13:20;;;;;;;14.13;6.00;;;15.90;91.50;;;;;;5043541;28;20209;-93
2022/06/06 05:15:58;;;;;;;12.70;5.87;;;15.90;91.50;;;;;;5024520;28;20212;-93
2022/06/06 05:18:54;;;;;;;11.10;5.13;;;15.90;91.50;;;;;;5029731;28;20302;-93
2022/06/06 05:21:41;;;;;;;8.13;4.23;;;15.90;91.70;;;;;;5014675;28;20270;-94
2022/06/06 05:24:38;;;;;;;8.57;4.57;;;15.90;91.60;;;;;;5014496;28;20288;-93
2022/06/06 05:27:42;;;;;;;6.87;4.20;;;16.00;91.80;;;;;;5006111;28;20227;-94
2022/06/06 05:30:17;;;;;;;7.43;4.50;;;16.00;91.70;;;;;;5012421;28;20239;-94
2022/06/06 05:33:04;;;;;;;10.90;4.90;;;16.10;91.70;;;;;;5024495;28;20200;-94
2022/06/06 05:35:54;;;;;;;8.53;4.70;;;16.10;91.80;;;;;;5020857;28;20236;-94
2022/06/06 05:38:42;;;;;;;8.67;4.90;;;16.10;91.90;;;;;;5014717;28;20226;-95
2022/06/06 05:41:23;;;;;;;7.30;4.60;;;16.20;91.80;;;;;;5013907;28;20664;-93
2022/06/06 05:43:58;;;;;;;12.57;5.27;;;16.20;92.20;;;;;;5014712;28;20301;-93
2022/06/06 05:46:42;;;;;;;10.20;5.17;;;16.30;91.80;;;;;;5017842;28;20610;-92
2022/06/06 05:49:48;;;;;;;11.20;5.03;;;16.30;91.80;;;;;;5016497;28;20264;-92
2022/06/06 05:52:49;;;;;;;15.23;6.20;;;16.40;91.90;;;;;;5016415;28;20189;-92
2022/06/06 05:55:32;;;;;;;12.13;5.30;;;16.40;91.70;;;;;;5018524;28;20231;-93
2022/06/06 05:58:21;;;;;;;8.73;4.30;;;16.50;92.00;;;;;;5027876;28;20974;-92
2022/06/06 06:00:58;;;;;;;9.33;4.90;;;16.50;91.80;;;;;;5021658;28;20198;-94
2022/06/06 06:03:51;;;;;;;8.63;4.03;;;16.50;91.60;;;;;;5020708;28;20197;-93
2022/06/06 06:06:29;;;;;;;11.57;4.87;;;16.60;91.50;;;;;;5017872;28;20333;-93
2022/06/06 06:09:23;;;;;;;12.20;5.33;;;16.60;91.40;;;;;;5015673;28;20229;-94
2022/06/06 06:12:07;;;;;;;15.03;5.90;;;16.60;91.40;;;;;;5013451;28;20260;-92
2022/06/06 06:14:47;;;;;;;15.30;6.30;;;16.70;91.40;;;;;;5019613;28;20209;-91
2022/06/06 06:17:20;;;;;;;10.77;6.33;;;16.70;91.40;;;;;;5016327;28;20231;-93
2022/06/06 06:19:54;;;;;;;13.47;5.40;;;16.70;91.30;;;;;;5017212;28;20288;-93
2022/06/06 06:22:49;;;;;;;18.27;6.07;;;16.80;91.40;;;;;;5016225;28;20210;-94
2022/06/06 06:25:18;;;;;;;9.17;4.40;;;16.80;91.50;;;;;;5016006;28;20206;-94
2022/06/06 06:27:49;;;;;;;8.40;3.97;;;16.90;91.10;;;;;;5015193;28;20200;-92
2022/06/06 06:30:21;;;;;;;8.53;4.03;;;16.90;91.00;;;;;;5014929;28;20520;-93
2022/06/06 06:33:17;;;;;;;12.80;4.80;;;16.90;91.10;;;;;;5015329;28;20227;-94
2022/06/06 06:35:57;;;;;;;13.37;5.43;;;17.00;91.00;;;;;;5025741;28;20262;-96
2022/06/06 06:38:54;;;;;;;5.47;3.67;;;17.00;91.00;;;;;;5016663;28;20215;-96
2022/06/06 06:41:30;;;;;;;9.27;4.20;;;17.10;90.90;;;;;;5019683;28;20210;-94
2022/06/06 06:44:02;;;;;;;7.13;3.83;;;17.10;90.70;;;;;;5015009;28;20217;-94
2022/06/06 06:46:34;;;;;;;7.20;4.07;;;17.20;90.60;;;;;;5013722;28;20209;-93
2022/06/06 06:49:23;;;;;;;8.27;4.27;;;17.20;90.50;;;;;;5023833;28;20237;-94
2022/06/06 06:52:03;;;;;;;7.60;3.87;;;17.30;90.40;;;;;;5032573;28;20223;-95
2022/06/06 06:54:47;;;;;;;8.47;3.87;;;17.30;90.10;;;;;;5027872;28;20211;-94
2022/06/06 06:57:30;;;;;;;4.27;2.97;;;17.40;90.00;;;;;;5013912;28;20211;-94
2022/06/06 07:00:07;;;;;;;7.97;3.83;;;17.50;90.20;;;;;;5016144;28;20712;-94
2022/06/06 07:08:45;;;;;;;9.30;4.27;;;17.60;88.90;;;;;;5039933;23;20248;-94
2022/06/06 07:11:33;;;;;;;8.87;3.67;;;17.60;89.40;;;;;;5034604;28;20209;-95
2022/06/06 07:14:12;;;;;;;10.00;2.83;;;17.80;89.50;;;;;;5021516;28;20209;-94
2022/06/06 07:16:41;;;;;;;9.03;3.27;;;17.80;89.10;;;;;;5031285;28;20211;-93
2022/06/06 07:19:16;;;;;;;5.57;2.83;;;17.90;88.90;;;;;;5036169;28;20620;-94
2022/06/06 07:21:45;;;;;;;7.03;3.73;;;17.90;87.70;;;;;;5029470;28;20612;-95
2022/06/06 07:24:23;;;;;;;6.60;3.10;;;18.00;87.40;;;;;;5036249;28;20207;-94
2022/06/06 07:26:53;;;;;;;12.27;4.57;;;18.00;86.60;;;;;;5022134;28;20210;-93
2022/06/06 07:29:22;;;;;;;7.77;3.63;;;18.00;86.90;;;;;;5015249;28;20281;-95
2022/06/06 07:32:07;;;;;;;6.97;3.13;;;18.00;87.00;;;;;;5019150;28;20224;-95
2022/06/06 07:35:02;;;;;;;18.17;6.13;;;18.10;87.50;;;;;;5033259;28;20675;-94
2022/06/06 07:38:02;;;;;;;9.43;3.60;;;18.10;86.40;;;;;;5010668;28;20212;-94
2022/06/06 07:40:39;;;;;;;9.43;3.97;;;18.20;85.90;;;;;;5014191;28;20254;-95
2022/06/06 07:43:53;;;;;;;8.83;3.23;;;18.20;85.90;;;;;;5019354;28;20711;-96
2022/06/06 07:46:31;;;;;;;10.97;4.67;;;18.20;86.10;;;;;;5021750;28;20254;-94
2022/06/06 07:49:08;;;;;;;12.03;4.27;;;18.30;86.20;;;;;;5036337;28;20219;-96
2022/06/06 07:51:46;;;;;;;8.43;3.83;;;18.30;85.50;;;;;;5036436;28;20261;-95
2022/06/06 07:54:24;;;;;;;10.00;4.00;;;18.30;85.90;;;;;;5032721;28;20215;-94
2022/06/06 07:57:02;;;;;;;17.93;5.70;;;18.40;85.00;;;;;;5027484;28;20204;-93
2022/06/06 07:59:47;;;;;;;7.17;3.10;;;18.40;85.40;;;;;;5032026;28;20318;-94
2022/06/06 08:02:44;;;;;;;9.10;3.90;;;18.50;84.40;;;;;;5032298;28;20652;-93
2022/06/06 08:05:30;;;;;;;9.53;3.80;;;18.50;84.70;;;;;;5032482;28;20200;-93
2022/06/06 08:08:08;;;;;;;8.17;3.47;;;18.50;81.60;;;;;;5027014;23;20298;-93
2022/06/06 08:10:42;;;;;;;6.43;2.83;;;18.60;81.60;;;;;;5015975;28;20206;-94
2022/06/06 08:13:26;;;;;;;11.10;3.47;;;18.60;82.30;;;;;;5014190;28;20209;-96
2022/06/06 08:16:19;;;;;;;8.70;3.30;;;18.70;81.70;;;;;;5018474;28;20215;-94
2022/06/06 08:19:25;;;;;;;6.23;3.03;;;18.80;81.50;;;;;;5025322;28;20712;-95
2022/06/06 08:21:54;;;;;;;7.30;2.83;;;18.90;81.30;;;;;;5012597;28;20212;-94
2022/06/06 08:24:42;;;;;;;8.60;3.07;;;18.90;80.30;;;;;;5019295;28;20187;-94
2022/06/06 08:27:14;;;;;;;8.67;3.67;;;19.00;78.30;;;;;;5007859;28;20690;-94
2022/06/06 08:29:45;;;;;;;6.53;3.00;;;19.00;79.30;;;;;;5009668;28;20216;-95
2022/06/06 08:32:25;;;;;;;8.90;3.60;;;19.10;78.40;;;;;;5016033;28;20225;-94
2022/06/06 08:34:54;;;;;;;6.90;2.90;;;19.10;76.00;;;;;;5033237;28;20200;-93
2022/06/06 08:37:41;;;;;;;9.10;3.93;;;19.20;77.70;;;;;;5035619;28;20205;-94
2022/06/06 08:40:40;;;;;;;9.90;2.80;;;19.20;77.10;;;;;;5034208;28;20233;-94
2022/06/06 08:43:18;;;;;;;10.27;3.87;;;19.40;76.40;;;;;;5048989;28;20173;-95
2022/06/06 08:45:54;;;;;;;9.47;3.63;;;19.40;76.40;;;;;;5045125;22;20284;-94
2022/06/06 08:51:51;;;;;;;6.63;2.73;;;19.60;75.40;;;;;;5036113;28;20285;-94
2022/06/06 08:55:05;;;;;;;7.00;2.47;;;19.70;74.90;;;;;;5016598;28;20216;-95
2022/06/06 08:58:10;;;;;;;6.00;2.40;;;19.80;75.00;;;;;;5001182;28;20230;-94
2022/06/06 09:00:54;;;;;;;3.03;1.73;;;19.90;74.60;;;;;;5004426;28;20322;-95
2022/06/06 09:04:05;;;;;;;4.23;2.20;;;19.90;74.00;;;;;;5013800;28;20216;-95
2022/06/06 09:07:14;;;;;;;9.77;3.13;;;20.00;72.70;;;;;;5010019;23;20276;-94
2022/06/06 09:13:08;;;;;;;3.07;1.93;;;20.10;72.20;;;;;;5037231;23;20685;-94
2022/06/06 09:15:58;;;;;;;5.50;2.00;;;20.20;72.80;;;;;;5014063;28;20283;-93
2022/06/06 09:19:15;;;;;;;6.83;2.90;;;20.10;73.00;;;;;;5013979;28;20216;-92
2022/06/06 09:22:04;;;;;;;4.00;2.17;;;20.20;71.90;;;;;;5015231;28;20206;-95
2022/06/06 09:25:09;;;;;;;5.60;2.50;;;20.20;72.30;;;;;;5015564;28;20312;-96
2022/06/06 09:31:34;;;;;;;5.70;2.40;;;20.20;71.90;;;;;;5013629;28;20204;-96
2022/06/06 09:34:52;;;;;;;7.37;3.23;;;20.20;71.10;;;;;;5014898;28;20260;-93
2022/06/06 09:37:38;;;;;;;6.20;2.63;;;20.10;70.80;;;;;;5007585;28;20216;-93
2022/06/06 09:40:19;;;;;;;9.33;3.43;;;20.10;71.50;;;;;;5013612;28;20257;-93
2022/06/06 09:43:08;;;;;;;4.93;2.50;;;20.00;71.90;;;;;;5007591;28;20979;-94
2022/06/06 09:45:54;;;;;;;9.13;3.63;;;20.00;72.00;;;;;;5012661;28;20205;-94
2022/06/06 09:48:58;;;;;;;8.20;3.50;;;20.10;72.50;;;;;;5003749;28;20614;-91
2022/06/06 09:59:09;;;;;;;6.50;2.47;;;20.00;70.00;;;;;;5010891;28;20672;-93
2022/06/06 10:05:48;;;;;;;5.83;2.13;;;19.90;68.90;;;;;;5013054;23;20324;-94
2022/06/06 10:12:24;;;;;;;7.40;3.20;;;19.80;70.30;;;;;;5007159;28;20292;-92
2022/06/06 10:15:15;;;;;;;9.07;3.83;;;19.90;69.90;;;;;;5009359;28;20250;-93
2022/06/06 10:18:20;;;;;;;6.73;3.37;;;19.90;70.20;;;;;;5026765;28;20268;-96
2022/06/06 10:21:10;;;;;;;5.97;3.17;;;19.80;70.40;;;;;;5031748;28;20231;-92
2022/06/06 10:23:59;;;;;;;7.53;3.60;;;19.80;69.60;;;;;;5048153;28;20275;-93
2022/06/06 10:26:46;;;;;;;9.60;2.57;;;19.80;71.20;;;;;;5017558;28;20205;-91
2022/06/06 10:33:00;;;;;;;13.20;5.50;;;19.70;72.80;;;;;;5011514;28;20228;-94
2022/06/06 10:35:37;;;;;;;9.33;3.57;;;19.60;73.20;;;;;;5009683;28;20248;-93
2022/06/06 10:38:22;;;;;;;13.17;4.90;;;19.60;73.40;;;;;;5001724;28;20645;-93
2022/06/06 10:41:05;;;;;;;6.93;3.50;;;19.60;72.70;;;;;;5014242;28;20213;-95
2022/06/06 10:44:04;;;;;;;14.07;6.07;;;19.50;73.40;;;;;;5012729;28;20356;-93
2022/06/06 10:46:41;;;;;;;9.73;4.90;;;19.50;74.20;;;;;;5000062;28;20321;-93
2022/06/06 10:49:23;;;;;;;11.40;4.87;;;19.50;73.40;;;;;;5006412;28;20771;-92
2022/06/06 10:52:35;;;;;;;9.20;4.40;;;19.40;74.00;;;;;;4996105;28;20217;-93
2022/06/06 10:55:38;;;;;;;12.43;5.20;;;19.40;73.80;;;;;;5007156;28;20216;-94
2022/06/06 10:58:54;;;;;;;9.93;4.47;;;19.40;73.60;;;;;;5014139;28;20577;-93
2022/06/06 11:01:59;;;;;;;11.33;5.47;;;19.40;72.60;;;;;;5012659;28;20246;-92
2022/06/06 11:05:10;;;;;;;10.57;4.47;;;19.50;72.70;;;;;;5010703;28;20216;-92
2022/06/06 11:08:28;;;;;;;8.30;4.53;;;19.40;72.60;;;;;;5008283;28;20207;-93
2022/06/06 11:11:37;;;;;;;14.97;5.73;;;19.40;72.60;;;;;;5015627;28;20189;-92
2022/06/06 11:14:08;;;;;;;10.90;4.53;;;19.40;72.20;;;;;;5005659;28;20658;-93
2022/06/06 11:17:15;;;;;;;9.67;4.43;;;19.30;73.20;;;;;;5018399;28;20269;-92
2022/06/06 11:20:10;;;;;;;9.70;4.70;;;19.30;72.50;;;;;;5004158;28;20283;-95
2022/06/06 11:23:09;;;;;;;10.57;4.00;;;19.20;72.50;;;;;;5004270;28;20206;-92
2022/06/06 11:25:58;;;;;;;6.37;3.53;;;19.20;73.20;;;;;;5013047;28;20638;-94
2022/06/06 11:28:48;;;;;;;9.53;4.20;;;19.20;72.90;;;;;;5014009;28;20720;-94
2022/06/06 11:31:58;;;;;;;13.07;4.53;;;19.10;73.00;;;;;;5015418;28;20587;-95
2022/06/06 11:35:04;;;;;;;12.67;5.13;;;19.10;73.00;;;;;;4924945;28;20208;-96
2022/06/06 11:38:13;;;;;;;11.50;4.17;;;19.10;73.20;;;;;;5007905;28;20226;-94
2022/06/06 11:41:12;;;;;;;10.47;4.77;;;19.10;73.00;;;;;;5006513;28;20627;-94
2022/06/06 11:44:16;;;;;;;10.23;3.87;;;19.10;73.30;;;;;;5013186;28;20211;-92
2022/06/06 11:47:20;;;;;;;11.10;4.63;;;19.00;73.20;;;;;;5013018;28;20215;-92
2022/06/06 11:50:24;;;;;;;10.67;5.43;;;19.00;73.20;;;;;;4996382;28;20208;-94
2022/06/06 11:53:42;;;;;;;8.80;4.40;;;19.00;73.60;;;;;;5011084;28;20209;-92
2022/06/06 11:56:51;;;;;;;12.23;5.03;;;19.00;73.30;;;;;;5008926;28;20208;-94
2022/06/06 11:59:52;;;;;;;14.17;4.93;;;18.90;73.60;;;;;;5000368;28;20212;-92
2022/06/06 12:02:57;;;;;;;7.73;4.00;;;19.00;73.90;;;;;;5014503;28;20664;-91
2022/06/06 12:06:20;;;;;;;11.17;4.67;;;18.90;74.60;;;;;;5012300;28;20216;-92
2022/06/06 12:09:36;;;;;;;8.50;4.13;;;19.00;75.30;;;;;;4939631;29;20203;-91
2022/06/06 12:12:38;;;;;;;11.17;4.37;;;19.00;75.10;;;;;;4898757;29;20748;-93
2022/06/06 12:15:37;;;;;;;11.63;4.47;;;19.00;75.10;;;;;;5004951;28;20719;-94
2022/06/06 12:18:26;;;;;;;10.37;4.10;;;18.90;75.10;;;;;;5008953;28;20209;-92
2022/06/06 12:21:21;;;;;;;9.40;4.23;;;19.00;74.90;;;;;;5013528;28;20245;-92
2022/06/06 12:24:08;;;;;;;11.27;4.23;;;18.90;74.60;;;;;;5014012;28;20228;-93
2022/06/06 12:27:19;;;;;;;6.93;3.27;;;18.90;74.30;;;;;;5009115;28;20205;-93
2022/06/06 12:30:26;;;;;;;11.97;4.93;;;19.00;74.70;;;;;;5011813;28;20282;-93
2022/06/06 12:33:03;;;;;;;5.03;2.83;;;19.00;73.20;;;;;;4997604;28;20209;-94
2022/06/06 12:35:48;;;;;;;15.50;5.20;;;18.90;74.00;;;;;;4992401;28;20194;-94
2022/06/06 12:38:44;;;;;;;13.07;4.23;;;19.00;73.50;;;;;;5005274;28;20204;-93
2022/06/06 12:41:25;;;;;;;11.13;3.97;;;19.00;73.70;;;;;;5013207;28;20704;-91
2022/06/06 12:43:59;;;;;;;11.07;4.90;;;19.00;73.60;;;;;;5012051;28;20212;-90
2022/06/06 12:46:47;;;;;;;8.93;3.53;;;19.00;74.00;;;;;;5013764;28;20605;-88
2022/06/06 12:49:37;;;;;;;9.03;3.93;;;19.00;74.30;;;;;;5011188;28;20259;-91
2022/06/06 12:52:24;;;;;;;17.17;6.40;;;19.00;74.00;;;;;;5004356;28;20201;-92
2022/06/06 12:55:32;;;;;;;4.33;2.43;;;18.90;74.20;;;;;;5000587;28;20262;-94
2022/06/06 12:58:17;;;;;;;7.83;3.27;;;18.90;74.60;;;;;;5005617;28;20201;-93
2022/06/06 13:04:32;;;;;;;6.27;2.80;;;18.80;75.00;;;;;;5011553;28;20248;-92
2022/06/06 13:07:13;;;;;;;8.57;3.90;;;18.80;75.70;;;;;;5011549;28;20255;-89
2022/06/06 13:10:15;;;;;;;9.93;4.50;;;18.80;76.40;;;;;;5009376;28;20352;-93
2022/06/06 13:13:07;;;;;;;8.77;3.57;;;18.80;76.80;;;;;;5017341;23;20231;-93
2022/06/06 13:15:42;;;;;;;8.40;3.77;;;18.80;78.50;;;;;;4992869;28;20205;-93
2022/06/06 13:18:25;;;;;;;7.83;3.90;;;18.70;78.80;;;;;;4992682;28;20209;-91
2022/06/06 13:21:03;;;;;;;9.40;3.70;;;18.70;79.70;;;;;;4991751;28;20327;-92
2022/06/06 13:23:53;;;;;;;11.47;4.73;;;18.70;79.70;;;;;;5024628;28;20207;-92
2022/06/06 13:26:47;;;;;;;11.13;4.67;;;18.70;79.40;;;;;;5012767;28;20212;-93
2022/06/06 13:29:27;;;;;;;5.53;3.20;;;18.70;79.20;;;;;;5011394;28;20205;-92
2022/06/06 13:32:08;;;;;;;9.57;4.50;;;18.70;79.20;;;;;;4993535;28;20229;-94
2022/06/06 13:34:58;;;;;;;7.03;3.30;;;18.60;79.80;;;;;;5008976;28;20214;-92
2022/06/06 13:37:44;;;;;;;15.67;4.43;;;18.60;78.90;;;;;;5009025;28;20299;-91
2022/06/06 13:40:38;;;;;;;10.13;4.10;;;18.70;78.70;;;;;;4992728;28;20624;-92
2022/06/06 13:43:34;;;;;;;19.40;6.20;;;18.70;78.80;;;;;;4994257;28;20273;-94
2022/06/06 13:46:25;;;;;;;12.53;4.10;;;18.70;78.40;;;;;;4981644;28;20210;-93
2022/06/06 13:49:11;;;;;;;15.67;3.67;;;18.70;78.10;;;;;;5002608;28;20721;-93
2022/06/06 13:51:50;;;;;;;8.00;3.80;;;18.70;78.20;;;;;;4996557;28;20225;-94
2022/06/06 13:54:34;;;;;;;6.73;3.17;;;18.70;78.20;;;;;;4991183;28;20209;-95
2022/06/06 13:57:21;;;;;;;8.53;4.13;;;18.70;78.10;;;;;;4991632;28;20209;-95
2022/06/06 14:00:17;;;;;;;6.97;3.23;;;18.70;78.70;;;;;;4992145;28;20201;-94
2022/06/06 14:03:22;;;;;;;8.73;3.33;;;18.80;77.90;;;;;;4988678;28;20220;-94
2022/06/06 14:06:11;;;;;;;6.57;3.43;;;18.70;78.70;;;;;;4987412;28;20304;-95
2022/06/06 14:08:50;;;;;;;10.73;4.20;;;18.70;78.40;;;;;;4995738;28;20211;-93
2022/06/06 14:11:36;;;;;;;4.97;3.13;;;18.70;78.70;;;;;;4997321;28;20215;-94
2022/06/06 14:14:03;;;;;;;7.90;3.73;;;18.70;79.00;;;;;;4996262;28;20271;-93
2022/06/06 14:16:36;;;;;;;18.07;4.00;;;18.70;79.50;;;;;;4988690;28;20593;-94
2022/06/06 14:19:21;;;;;;;9.30;3.13;;;18.60;80.20;;;;;;4991922;28;20216;-94
2022/06/06 14:21:51;;;;;;;9.00;3.87;;;18.70;81.10;;;;;;4995590;28;20261;-92
2022/06/06 14:24:24;;;;;;;7.27;3.50;;;18.70;81.30;;;;;;4990696;28;20354;-95
2022/06/06 14:26:57;;;;;;;8.43;4.27;;;18.70;82.20;;;;;;4975108;28;20209;-93
2022/06/06 14:29:29;;;;;;;13.47;4.70;;;18.70;82.90;;;;;;4992491;28;20470;-93
2022/06/06 14:32:04;;;;;;;7.10;3.60;;;18.60;82.80;;;;;;5003032;28;20207;-91
2022/06/06 14:34:42;;;;;;;10.60;4.37;;;18.60;83.30;;;;;;4995408;28;20208;-93
2022/06/06 14:37:17;;;;;;;11.17;4.90;;;18.60;84.20;;;;;;4994489;28;20306;-92
2022/06/06 14:40:16;;;;;;;12.43;4.90;;;18.60;84.50;;;;;;4993628;28;20295;-91
2022/06/06 14:42:55;;;;;;;8.53;3.90;;;18.60;84.80;;;;;;4988911;28;20342;-92
2022/06/06 14:45:30;;;;;;;10.07;4.60;;;18.60;84.80;;;;;;4983135;28;20254;-93
2022/06/06 14:48:01;;;;;;;11.23;4.83;;;18.60;85.60;;;;;;4978596;28;20216;-92
2022/06/06 14:50:46;;;;;;;14.00;5.57;;;18.50;85.00;;;;;;4995434;28;20623;-93